Time;durP1;ratioP1;P1;durP2;ratioP2;P2;SDS_P1;SDS_P2;PMS_P1;PMS_P2;Temp;Humidity;BMP_temperature;BMP_pressure;BME280_temperature;BME280_humidity;BME280_pressure;Samples;Min_cycle;Max_cycle;Signal;HPM_P1;HPM_P2
2021/01/24 00:00:47;;;;;;;5.00;3.43;;;4.00;99.90;;;;;;4984377;28;20185;-95
2021/01/24 00:03:18;;;;;;;2.90;2.60;;;4.10;99.90;;;;;;4986171;28;20181;-95
2021/01/24 00:05:49;;;;;;;2.67;2.37;;;3.90;99.90;;;;;;4989461;28;20320;-94
2021/01/24 00:08:19;;;;;;;4.80;2.97;;;3.90;99.90;;;;;;5004778;28;20189;-94
2021/01/24 00:10:46;;;;;;;5.03;2.90;;;3.80;99.90;;;;;;4988641;28;20200;-95
2021/01/24 00:13:11;;;;;;;3.10;2.87;;;3.80;99.90;;;;;;4985319;28;20200;-95
2021/01/24 00:15:37;;;;;;;5.50;3.03;;;3.80;99.90;;;;;;4988151;28;20218;-94
2021/01/24 00:18:03;;;;;;;3.77;2.70;;;3.90;99.90;;;;;;4986731;28;20188;-95
2021/01/24 00:20:29;;;;;;;3.37;3.07;;;3.90;99.90;;;;;;4985155;28;20189;-95
2021/01/24 00:22:58;;;;;;;5.90;3.53;;;3.90;99.90;;;;;;4985173;28;20231;-95
2021/01/24 00:25:26;;;;;;;4.40;3.60;;;4.00;99.90;;;;;;4986006;28;20189;-95
2021/01/24 00:27:51;;;;;;;3.87;3.57;;;4.10;99.90;;;;;;4971450;28;20190;-94
2021/01/24 00:30:21;;;;;;;4.10;3.50;;;4.10;99.90;;;;;;4983887;28;20636;-95
2021/01/24 00:32:47;;;;;;;8.57;4.43;;;4.10;99.90;;;;;;4982621;28;20209;-94
2021/01/24 00:35:14;;;;;;;4.60;4.20;;;4.00;99.90;;;;;;4985438;28;20212;-95
2021/01/24 00:37:40;;;;;;;4.47;4.07;;;3.90;99.90;;;;;;4983427;28;20273;-93
2021/01/24 00:40:10;;;;;;;5.00;4.43;;;3.80;99.90;;;;;;4961949;28;20284;-93
2021/01/24 00:42:37;;;;;;;5.73;4.03;;;3.80;99.90;;;;;;4965022;28;20205;-93
2021/01/24 00:45:08;;;;;;;7.57;4.30;;;3.80;99.90;;;;;;4981997;28;20235;-93
2021/01/24 00:47:45;;;;;;;;;;;;;;;;;;;;;
2021/01/24 00:50:12;;;;;;;6.37;5.50;;;3.80;99.90;;;;;;5001353;28;20269;-93
2021/01/24 00:52:40;;;;;;;5.50;4.70;;;3.70;99.90;;;;;;4984157;28;20208;-93
2021/01/24 00:55:09;;;;;;;7.90;5.20;;;3.70;99.90;;;;;;4970409;28;20265;-93
2021/01/24 00:57:34;;;;;;;8.23;6.00;;;3.70;99.90;;;;;;4950892;28;20186;-93
2021/01/24 01:00:00;;;;;;;6.70;6.17;;;3.80;99.90;;;;;;4979852;28;20188;-93
2021/01/24 01:02:28;;;;;;;8.10;5.97;;;3.80;99.90;;;;;;4978652;28;20174;-93
2021/01/24 01:04:54;;;;;;;12.00;7.00;;;3.80;99.90;;;;;;4979914;28;20658;-93
2021/01/24 01:07:20;;;;;;;6.87;6.17;;;3.70;99.90;;;;;;4981602;28;20321;-94
2021/01/24 01:09:48;;;;;;;11.10;6.43;;;3.80;99.90;;;;;;4984335;28;20240;-94
2021/01/24 01:12:17;;;;;;;14.47;7.07;;;3.70;99.90;;;;;;4971163;28;20189;-94
2021/01/24 01:14:42;;;;;;;9.10;7.53;;;3.70;99.90;;;;;;4984202;28;20304;-94
2021/01/24 01:17:11;;;;;;;8.47;6.80;;;3.60;99.90;;;;;;4985959;28;20216;-94
2021/01/24 01:19:37;;;;;;;11.20;7.30;;;3.70;99.90;;;;;;4979204;28;20214;-93
2021/01/24 01:22:05;;;;;;;8.97;6.23;;;3.60;99.90;;;;;;4983926;28;20165;-93
2021/01/24 01:24:33;;;;;;;9.67;5.83;;;3.50;99.90;;;;;;4970605;28;20193;-95
2021/01/24 01:27:02;;;;;;;9.03;5.97;;;3.40;99.90;;;;;;4984674;28;20180;-95
2021/01/24 01:29:27;;;;;;;7.83;5.90;;;3.50;99.90;;;;;;4983842;28;20248;-95
2021/01/24 01:31:56;;;;;;;10.07;7.13;;;3.60;99.90;;;;;;4985811;28;20177;-94
2021/01/24 01:34:22;;;;;;;8.17;7.20;;;3.60;99.90;;;;;;4985675;28;20267;-95
2021/01/24 01:36:53;;;;;;;9.73;7.47;;;3.70;99.90;;;;;;4989323;28;20256;-95
2021/01/24 01:39:19;;;;;;;8.87;6.90;;;3.80;99.90;;;;;;4971335;28;20598;-95
2021/01/24 01:41:45;;;;;;;16.27;7.13;;;3.70;99.90;;;;;;4984197;28;20174;-95
2021/01/24 01:44:11;;;;;;;7.83;6.93;;;3.90;99.90;;;;;;4976801;28;20249;-95
2021/01/24 01:46:37;;;;;;;9.30;7.40;;;4.00;99.90;;;;;;4979981;28;20205;-94
2021/01/24 01:49:03;;;;;;;11.70;7.27;;;4.00;99.90;;;;;;5003007;28;20229;-94
2021/01/24 01:51:31;;;;;;;10.13;7.30;;;4.00;99.90;;;;;;5003360;28;20237;-93
2021/01/24 01:53:58;;;;;;;8.33;7.60;;;4.10;99.90;;;;;;4991064;28;20225;-94
2021/01/24 01:56:24;;;;;;;8.50;7.60;;;4.00;99.90;;;;;;4984850;28;20173;-93
2021/01/24 01:58:58;;;;;;;8.37;7.50;;;4.00;99.90;;;;;;5000188;28;20265;-94
2021/01/24 02:01:39;;;;;;;7.97;7.13;;;3.90;99.90;;;;;;4990887;28;20178;-95
2021/01/24 02:04:47;;;;;;;9.97;7.87;;;3.70;99.90;;;;;;4991527;28;20166;-94
2021/01/24 02:07:33;;;;;;;7.43;6.80;;;3.80;99.90;;;;;;5029785;23;20222;-94
2021/01/24 02:10:09;;;;;;;6.97;6.27;;;3.80;99.90;;;;;;4993632;28;20241;-95
2021/01/24 02:13:29;;;;;;;6.90;6.17;;;3.80;99.90;;;;;;4988879;28;20188;-94
2021/01/24 02:15:59;;;;;;;6.23;5.73;;;3.80;99.90;;;;;;4981040;28;20246;-94
2021/01/24 02:18:27;;;;;;;7.67;7.00;;;3.70;99.90;;;;;;4985058;28;20182;-94
2021/01/24 02:21:15;;;;;;;9.07;7.13;;;3.70;99.90;;;;;;4982451;28;20190;-94
2021/01/24 02:23:42;;;;;;;8.00;7.20;;;3.60;99.90;;;;;;4982434;28;20579;-94
2021/01/24 02:26:33;;;;;;;7.70;7.00;;;3.50;99.90;;;;;;4962454;28;20544;-94
2021/01/24 02:29:23;;;;;;;10.37;7.67;;;3.40;99.90;;;;;;4957754;29;20174;-95
2021/01/24 02:31:51;;;;;;;11.90;8.87;;;3.40;99.90;;;;;;4970940;29;20190;-95
2021/01/24 02:34:22;;;;;;;9.40;8.40;;;3.30;99.90;;;;;;4985857;28;20206;-94
2021/01/24 02:36:51;;;;;;;13.50;9.47;;;3.40;99.90;;;;;;4986059;28;20186;-94
2021/01/24 02:39:18;;;;;;;12.43;10.63;;;3.40;99.90;;;;;;4986083;28;20205;-96
2021/01/24 02:41:48;;;;;;;17.80;10.10;;;3.50;99.90;;;;;;4991371;28;20177;-95
2021/01/24 02:44:28;;;;;;;17.57;9.53;;;3.60;99.90;;;;;;4988779;28;20188;-95
2021/01/24 02:46:56;;;;;;;13.43;9.70;;;3.60;99.90;;;;;;4989812;28;20193;-95
2021/01/24 02:49:41;;;;;;;17.17;10.73;;;3.70;99.90;;;;;;4985058;28;20245;-94
2021/01/24 02:52:10;;;;;;;14.93;10.03;;;3.70;99.90;;;;;;4989666;28;20197;-96
2021/01/24 02:54:40;;;;;;;12.30;9.90;;;3.80;99.90;;;;;;4990131;28;20213;-96
2021/01/24 02:57:09;;;;;;;16.73;9.73;;;3.80;99.90;;;;;;4985486;28;20178;-96
2021/01/24 02:59:37;;;;;;;14.97;9.67;;;3.60;99.90;;;;;;4986932;28;20282;-95
2021/01/24 03:02:03;;;;;;;12.07;9.63;;;3.50;99.90;;;;;;4982309;28;20341;-94
2021/01/24 03:04:31;;;;;;;17.53;9.30;;;3.40;99.90;;;;;;4985278;28;20599;-95
2021/01/24 03:06:56;;;;;;;9.67;8.27;;;3.30;99.90;;;;;;4983979;28;20217;-95
2021/01/24 03:09:25;;;;;;;11.00;8.60;;;3.30;99.90;;;;;;4979216;28;20198;-94
2021/01/24 03:11:54;;;;;;;11.73;8.47;;;3.20;99.90;;;;;;4996567;28;20193;-94
2021/01/24 03:14:27;;;;;;;14.23;11.30;;;3.20;99.90;;;;;;4989438;28;20210;-94
2021/01/24 03:16:59;;;;;;;9.40;8.13;;;3.20;99.90;;;;;;4985125;28;20185;-95
2021/01/24 03:19:27;;;;;;;9.73;7.93;;;3.10;99.90;;;;;;4989692;28;20209;-94
2021/01/24 03:21:57;;;;;;;14.67;8.10;;;3.10;99.90;;;;;;4987249;28;20182;-95
2021/01/24 03:24:29;;;;;;;12.27;7.70;;;3.10;99.90;;;;;;4988161;28;20225;-94
2021/01/24 03:26:55;;;;;;;10.57;8.83;;;3.10;99.90;;;;;;4985681;28;20178;-94
2021/01/24 03:29:29;;;;;;;10.67;8.70;;;3.10;99.90;;;;;;4976023;28;20638;-93
2021/01/24 03:31:57;;;;;;;14.90;9.00;;;3.10;99.90;;;;;;4989039;28;20222;-95
2021/01/24 03:34:26;;;;;;;16.87;8.93;;;3.30;99.90;;;;;;4988734;28;20237;-95
2021/01/24 03:36:58;;;;;;;16.23;8.77;;;3.30;99.90;;;;;;4988875;28;20189;-94
2021/01/24 03:39:33;;;;;;;14.13;8.90;;;3.40;99.90;;;;;;4992864;28;20684;-95
2021/01/24 03:42:08;;;;;;;12.43;8.13;;;3.40;99.90;;;;;;4992027;28;20216;-94
2021/01/24 03:44:43;;;;;;;14.80;8.43;;;3.40;99.90;;;;;;4991314;28;20187;-93
2021/01/24 03:47:20;;;;;;;12.07;8.17;;;3.40;99.90;;;;;;4991558;28;20184;-95
2021/01/24 03:49:45;;;;;;;12.37;8.50;;;3.30;99.90;;;;;;4980139;28;20186;-94
2021/01/24 03:52:11;;;;;;;10.87;8.93;;;3.30;99.90;;;;;;4986861;28;20190;-94
2021/01/24 03:54:37;;;;;;;9.80;8.60;;;3.30;99.90;;;;;;4988952;28;20210;-93
2021/01/24 03:57:03;;;;;;;10.97;8.57;;;3.30;99.90;;;;;;4988363;28;20284;-93
2021/01/24 03:59:29;;;;;;;9.07;8.17;;;3.20;99.90;;;;;;4985753;28;20273;-94
2021/01/24 04:01:55;;;;;;;12.60;8.43;;;3.20;99.90;;;;;;4980849;28;20178;-95
2021/01/24 04:04:20;;;;;;;12.50;8.17;;;3.10;99.90;;;;;;4978592;28;20188;-94
2021/01/24 04:06:51;;;;;;;15.33;9.50;;;3.10;99.90;;;;;;4978283;28;20260;-93
2021/01/24 04:09:16;;;;;;;13.47;8.83;;;3.10;99.90;;;;;;4978527;28;20178;-93
2021/01/24 04:11:42;;;;;;;13.60;9.10;;;3.20;99.90;;;;;;4978380;28;20644;-93
2021/01/24 04:14:08;;;;;;;22.93;10.03;;;3.20;99.90;;;;;;5000209;28;20205;-93
2021/01/24 04:16:36;;;;;;;18.97;9.97;;;3.20;99.90;;;;;;5001915;28;20209;-93
2021/01/24 04:19:02;;;;;;;19.00;10.33;;;3.10;99.90;;;;;;5000805;28;20257;-94
2021/01/24 04:21:29;;;;;;;13.80;9.43;;;3.10;99.90;;;;;;4979948;28;20224;-93
2021/01/24 04:23:55;;;;;;;13.67;9.67;;;3.10;99.90;;;;;;4993801;28;20186;-93
2021/01/24 04:26:21;;;;;;;12.20;9.23;;;3.10;99.90;;;;;;4967933;29;20225;-93
2021/01/24 04:28:46;;;;;;;11.17;9.27;;;3.00;99.90;;;;;;4943481;29;20218;-93
2021/01/24 04:31:12;;;;;;;11.30;9.07;;;2.90;99.90;;;;;;4975120;28;20169;-92
2021/01/24 04:33:40;;;;;;;13.40;10.27;;;2.80;99.90;;;;;;4965180;29;20251;-93
2021/01/24 04:36:07;;;;;;;12.67;10.10;;;2.80;99.90;;;;;;4973307;28;20320;-92
2021/01/24 04:38:33;;;;;;;16.83;9.10;;;2.90;99.90;;;;;;4964022;28;20174;-93
2021/01/24 04:40:59;;;;;;;14.10;9.53;;;2.90;99.90;;;;;;4963266;28;20183;-93
2021/01/24 04:43:28;;;;;;;15.23;10.10;;;2.80;99.90;;;;;;4958178;29;20617;-93
2021/01/24 04:45:56;;;;;;;16.27;9.40;;;2.80;99.90;;;;;;4959394;28;20235;-93
2021/01/24 04:48:26;;;;;;;13.97;9.43;;;2.80;99.90;;;;;;4957883;28;20233;-92
2021/01/24 04:50:52;;;;;;;14.10;10.73;;;2.90;99.90;;;;;;4958329;28;20663;-94
2021/01/24 04:53:18;;;;;;;19.03;11.47;;;3.00;99.90;;;;;;4958786;28;20179;-92
2021/01/24 04:55:44;;;;;;;16.90;10.97;;;2.90;99.90;;;;;;4958220;28;20206;-92
2021/01/24 04:58:10;;;;;;;15.40;10.83;;;2.80;99.90;;;;;;4958249;28;20269;-93
2021/01/24 05:00:36;;;;;;;16.53;11.17;;;2.90;99.90;;;;;;4958860;28;20210;-93
2021/01/24 05:03:03;;;;;;;17.80;10.83;;;2.80;99.90;;;;;;4968482;28;20245;-93
2021/01/24 05:05:31;;;;;;;16.30;10.70;;;2.90;99.90;;;;;;4977372;28;20210;-94
2021/01/24 05:08:02;;;;;;;18.03;11.03;;;2.90;99.90;;;;;;4976676;28;20194;-93
2021/01/24 05:10:30;;;;;;;20.53;10.70;;;2.90;99.90;;;;;;4977235;28;20185;-92
2021/01/24 05:12:58;;;;;;;25.70;11.17;;;2.80;99.90;;;;;;4977072;28;20178;-93
2021/01/24 05:15:26;;;;;;;18.27;11.43;;;2.70;99.90;;;;;;4976915;28;20218;-92
2021/01/24 05:17:59;;;;;;;18.07;10.53;;;2.70;99.90;;;;;;4977966;28;20249;-92
2021/01/24 05:20:30;;;;;;;14.47;11.27;;;2.80;99.90;;;;;;4960912;28;20280;-92
2021/01/24 05:22:57;;;;;;;22.63;11.97;;;2.70;99.90;;;;;;4976885;28;20182;-93
2021/01/24 05:25:26;;;;;;;14.97;10.43;;;2.60;99.90;;;;;;4976933;28;20702;-93
2021/01/24 05:27:52;;;;;;;15.37;10.63;;;2.70;99.90;;;;;;4976962;28;20185;-92
2021/01/24 05:30:28;;;;;;;21.03;10.63;;;2.70;99.90;;;;;;4982088;28;20174;-91
2021/01/24 05:32:56;;;;;;;17.57;10.07;;;2.90;99.90;;;;;;5000800;28;20237;-91
2021/01/24 05:35:22;;;;;;;13.57;9.70;;;2.90;99.90;;;;;;5000254;28;20218;-92
2021/01/24 05:37:47;;;;;;;17.37;9.97;;;2.90;99.90;;;;;;4998098;28;20176;-93
2021/01/24 05:40:13;;;;;;;14.53;8.93;;;2.90;99.90;;;;;;4986603;28;20186;-92
2021/01/24 05:42:39;;;;;;;14.07;9.67;;;2.90;99.90;;;;;;4987616;28;20202;-92
2021/01/24 05:45:16;;;;;;;13.17;8.77;;;2.90;99.90;;;;;;4961780;28;20220;-93
2021/01/24 05:47:47;;;;;;;12.90;9.13;;;2.80;99.90;;;;;;4978809;28;20190;-93
2021/01/24 05:50:19;;;;;;;24.30;8.53;;;2.90;99.90;;;;;;4977546;28;20530;-93
2021/01/24 05:52:49;;;;;;;16.40;10.10;;;2.80;99.90;;;;;;4978480;28;20178;-92
2021/01/24 05:55:32;;;;;;;18.37;8.90;;;2.80;99.90;;;;;;4977275;28;20205;-93
2021/01/24 05:57:59;;;;;;;19.23;10.07;;;2.90;99.90;;;;;;4976656;28;20185;-92
2021/01/24 06:00:25;;;;;;;11.47;9.47;;;2.80;99.90;;;;;;4975951;28;20285;-93
2021/01/24 06:02:52;;;;;;;15.70;9.27;;;2.80;99.90;;;;;;4977493;28;20206;-93
2021/01/24 06:05:18;;;;;;;16.27;10.07;;;2.70;99.90;;;;;;4976481;28;20182;-93
2021/01/24 06:07:44;;;;;;;12.93;9.40;;;2.70;99.90;;;;;;4976498;28;20614;-92
2021/01/24 06:10:10;;;;;;;13.20;9.67;;;2.70;99.90;;;;;;4976697;28;20185;-93
2021/01/24 06:12:36;;;;;;;18.00;10.30;;;2.70;99.90;;;;;;4976692;28;20186;-93
2021/01/24 06:15:04;;;;;;;16.43;10.83;;;2.70;99.90;;;;;;4978063;28;20212;-92
2021/01/24 06:17:40;;;;;;;18.40;10.47;;;2.80;99.90;;;;;;4977445;28;20190;-93
2021/01/24 06:20:08;;;;;;;23.23;10.23;;;2.80;99.90;;;;;;4961356;28;20178;-93
2021/01/24 06:22:56;;;;;;;17.27;10.93;;;2.80;99.90;;;;;;4974278;29;20183;-93
2021/01/24 06:25:30;;;;;;;14.13;9.73;;;2.80;99.90;;;;;;4974660;29;20254;-92
2021/01/24 06:28:33;;;;;;;14.77;11.27;;;2.70;99.90;;;;;;4975236;28;20178;-93
2021/01/24 06:30:59;;;;;;;18.57;11.77;;;2.60;99.90;;;;;;4959578;29;20197;-93
2021/01/24 06:33:25;;;;;;;21.03;11.47;;;2.60;99.90;;;;;;4963487;28;20242;-92
2021/01/24 06:36:02;;;;;;;20.73;11.60;;;2.60;99.90;;;;;;4979761;28;20266;-93
2021/01/24 06:38:32;;;;;;;17.20;11.00;;;2.60;99.90;;;;;;4988125;28;20158;-93
2021/01/24 06:40:59;;;;;;;16.37;11.17;;;2.50;99.90;;;;;;4999241;28;20154;-92
2021/01/24 06:43:46;;;;;;;21.53;11.20;;;2.50;99.90;;;;;;4978244;28;20185;-92
2021/01/24 06:46:20;;;;;;;17.83;11.53;;;2.40;99.90;;;;;;4983615;28;20702;-92
2021/01/24 06:48:50;;;;;;;17.23;10.00;;;2.40;99.90;;;;;;4977320;28;20630;-93
2021/01/24 06:51:42;;;;;;;24.10;10.67;;;2.30;99.90;;;;;;4967148;28;20189;-92
2021/01/24 06:54:25;;;;;;;18.97;10.63;;;2.30;99.90;;;;;;4977564;28;20210;-92
2021/01/24 06:56:51;;;;;;;17.53;10.53;;;2.30;99.90;;;;;;4967638;28;20181;-92
2021/01/24 06:59:28;;;;;;;19.93;11.63;;;2.50;99.90;;;;;;4995951;28;20245;-92
2021/01/24 07:02:20;;;;;;;18.47;11.27;;;2.60;99.90;;;;;;4985575;28;20182;-92
2021/01/24 07:05:18;;;;;;;20.77;11.33;;;2.60;99.90;;;;;;4975186;28;20182;-92
2021/01/24 07:07:49;;;;;;;15.23;10.67;;;2.70;99.90;;;;;;4975379;28;20202;-92
2021/01/24 07:10:36;;;;;;;19.80;10.27;;;2.70;99.90;;;;;;4977718;28;20192;-91
2021/01/24 07:13:24;;;;;;;13.90;10.37;;;2.70;99.90;;;;;;4974637;28;20240;-92
2021/01/24 07:16:01;;;;;;;25.40;12.10;;;2.70;99.90;;;;;;4975694;28;20303;-91
2021/01/24 07:18:40;;;;;;;18.87;11.77;;;2.70;99.90;;;;;;4975639;28;20547;-91
2021/01/24 07:21:05;;;;;;;22.13;11.47;;;2.60;99.90;;;;;;4975741;28;20177;-92
2021/01/24 07:23:33;;;;;;;23.03;13.37;;;2.60;99.90;;;;;;4975998;28;20181;-92
2021/01/24 07:26:02;;;;;;;25.10;12.67;;;2.60;99.90;;;;;;4976388;28;20189;-91
2021/01/24 07:28:28;;;;;;;19.33;12.47;;;2.60;99.90;;;;;;4975061;28;20649;-92
2021/01/24 07:31:04;;;;;;;19.53;11.57;;;2.50;99.90;;;;;;4958858;28;20197;-92
2021/01/24 07:33:31;;;;;;;14.80;11.43;;;2.60;99.90;;;;;;4958981;28;20646;-91
2021/01/24 07:35:59;;;;;;;17.53;12.00;;;2.50;99.90;;;;;;4974894;28;20309;-91
2021/01/24 07:38:26;;;;;;;20.97;11.30;;;2.40;99.90;;;;;;4974702;28;20555;-91
2021/01/24 07:40:56;;;;;;;17.23;11.30;;;2.40;99.90;;;;;;4974957;28;20186;-91
2021/01/24 07:43:22;;;;;;;18.10;11.80;;;2.50;99.90;;;;;;4960620;28;20178;-90
2021/01/24 07:45:48;;;;;;;22.10;12.60;;;2.50;99.90;;;;;;4977024;28;20185;-91
2021/01/24 07:48:14;;;;;;;19.90;12.17;;;2.60;99.90;;;;;;4979290;28;20206;-91
2021/01/24 07:50:40;;;;;;;19.70;11.97;;;2.60;99.90;;;;;;4961042;28;20627;-91
2021/01/24 07:53:07;;;;;;;20.80;13.13;;;2.60;99.90;;;;;;4980604;28;20182;-90
2021/01/24 07:55:33;;;;;;;19.67;12.50;;;2.60;99.90;;;;;;4975985;28;20702;-89
2021/01/24 07:57:59;;;;;;;19.07;11.90;;;2.70;99.90;;;;;;4975992;28;20186;-89
2021/01/24 08:00:26;;;;;;;18.10;12.23;;;2.90;99.90;;;;;;4960621;28;20182;-90
2021/01/24 08:02:52;;;;;;;18.53;11.90;;;3.00;99.90;;;;;;4982189;28;20190;-89
2021/01/24 08:05:18;;;;;;;19.17;12.53;;;3.00;99.90;;;;;;4961192;28;20606;-89
2021/01/24 08:07:44;;;;;;;23.57;12.47;;;3.10;99.90;;;;;;4976138;28;20217;-89
2021/01/24 08:10:10;;;;;;;22.70;12.53;;;3.20;99.90;;;;;;4976776;28;20175;-89
2021/01/24 08:12:35;;;;;;;17.43;11.87;;;3.30;99.90;;;;;;4976740;28;20538;-89
2021/01/24 08:15:01;;;;;;;18.63;12.27;;;3.40;99.90;;;;;;4963279;28;20566;-89
2021/01/24 08:17:27;;;;;;;19.27;12.77;;;3.50;99.90;;;;;;4979246;28;20182;-89
2021/01/24 08:19:55;;;;;;;16.47;11.40;;;3.60;99.90;;;;;;4976393;28;20187;-90
2021/01/24 08:22:24;;;;;;;15.37;10.50;;;3.60;99.90;;;;;;4977039;28;20178;-88
2021/01/24 08:24:50;;;;;;;16.87;11.10;;;3.60;99.90;;;;;;4980087;28;20210;-90
2021/01/24 08:27:16;;;;;;;16.63;12.03;;;3.60;99.90;;;;;;4980647;28;20197;-89
2021/01/24 08:29:44;;;;;;;19.57;11.73;;;3.70;99.90;;;;;;4985399;28;20269;-89
2021/01/24 08:32:10;;;;;;;16.23;11.57;;;3.70;99.90;;;;;;4982077;28;20212;-89
2021/01/24 08:34:36;;;;;;;18.70;10.07;;;3.80;99.90;;;;;;4980592;28;20213;-90
2021/01/24 08:37:05;;;;;;;16.50;11.77;;;4.00;99.90;;;;;;4980629;28;20186;-90
2021/01/24 08:39:31;;;;;;;16.40;12.53;;;4.30;99.90;;;;;;4979869;28;20184;-90
2021/01/24 08:41:57;;;;;;;18.90;12.00;;;5.20;99.90;;;;;;4981403;28;20189;-90
2021/01/24 08:44:23;;;;;;;16.90;12.13;;;6.30;99.90;;;;;;4980183;28;20190;-89
2021/01/24 08:46:53;;;;;;;18.90;11.27;;;6.90;99.90;;;;;;4962781;28;20178;-89
2021/01/24 08:49:23;;;;;;;22.90;14.20;;;8.50;99.90;;;;;;4982430;28;20194;-89
2021/01/24 08:51:50;;;;;;;11.90;10.73;;;10.80;99.90;;;;;;4979602;28;20201;-89
2021/01/24 08:54:23;;;;;;;11.13;9.67;;;13.60;99.90;;;;;;4979287;28;20213;-88
2021/01/24 08:57:06;;;;;;;10.48;8.30;;;15.50;99.90;;;;;;4978466;28;20178;-89
2021/01/24 08:59:32;;;;;;;9.10;7.75;;;16.90;99.90;;;;;;4977828;28;20348;-89
2021/01/24 09:02:00;;;;;;;8.00;7.30;;;18.20;99.90;;;;;;4979411;28;20631;-90
2021/01/24 09:04:29;;;;;;;8.57;7.50;;;19.30;99.90;;;;;;4970026;28;20194;-90
2021/01/24 09:07:11;;;;;;;8.45;7.65;;;20.50;99.90;;;;;;4998693;28;20212;-92
2021/01/24 09:09:44;;;;;;;8.60;7.70;;;21.30;99.90;;;;;;4993151;28;20314;-91
2021/01/24 09:12:16;;;;;;;9.00;8.05;;;22.10;99.80;;;;;;4980565;28;20236;-90
2021/01/24 09:14:42;;;;;;;8.98;7.60;;;22.10;97.40;;;;;;4977669;28;20229;-91
2021/01/24 09:17:12;;;;;;;9.15;7.18;;;22.40;96.60;;;;;;4987634;28;20189;-91
2021/01/24 09:19:42;;;;;;;8.57;7.72;;;23.00;95.80;;;;;;4977134;28;20178;-91
2021/01/24 09:22:10;;;;;;;9.40;8.48;;;23.50;93.80;;;;;;4968670;28;20179;-92
2021/01/24 09:24:36;;;;;;;8.02;6.90;;;23.50;93.10;;;;;;4997019;28;20200;-91
2021/01/24 09:27:03;;;;;;;8.18;7.45;;;23.60;92.70;;;;;;4986352;28;20182;-91
2021/01/24 09:29:29;;;;;;;8.38;7.65;;;23.00;91.70;;;;;;4976528;28;20182;-91
2021/01/24 09:31:55;;;;;;;7.63;7.03;;;22.30;92.20;;;;;;4974152;28;20182;-91
2021/01/24 09:34:20;;;;;;;8.77;7.85;;;22.00;92.60;;;;;;4976493;28;20214;-91
2021/01/24 09:36:46;;;;;;;11.73;7.85;;;22.30;92.40;;;;;;4976343;28;20190;-92
2021/01/24 09:39:12;;;;;;;9.50;8.50;;;22.40;91.90;;;;;;4977553;28;20197;-92
2021/01/24 09:41:38;;;;;;;8.38;7.38;;;22.60;91.90;;;;;;4977380;28;20185;-92
2021/01/24 09:44:04;;;;;;;9.00;8.15;;;22.50;91.60;;;;;;4977469;28;20194;-93
2021/01/24 09:46:30;;;;;;;9.13;8.10;;;22.20;92.00;;;;;;4976270;28;20179;-93
2021/01/24 09:48:55;;;;;;;10.23;8.45;;;21.80;92.20;;;;;;4977395;28;20182;-93
2021/01/24 09:51:21;;;;;;;9.20;8.23;;;21.40;92.20;;;;;;4975702;28;20784;-93
2021/01/24 09:53:52;;;;;;;9.25;8.20;;;20.50;92.50;;;;;;4975868;28;20182;-91
2021/01/24 09:56:19;;;;;;;9.43;8.70;;;20.10;93.30;;;;;;4975848;28;20198;-94
2021/01/24 09:58:44;;;;;;;11.07;8.73;;;20.10;93.80;;;;;;4975980;28;20256;-93
2021/01/24 10:01:10;;;;;;;14.00;9.10;;;20.10;93.30;;;;;;4975602;28;20611;-92
2021/01/24 10:03:39;;;;;;;9.60;8.65;;;20.30;93.50;;;;;;4975706;28;20182;-92
2021/01/24 10:06:05;;;;;;;8.77;8.02;;;20.50;93.20;;;;;;4976216;28;20269;-91
2021/01/24 10:08:31;;;;;;;10.30;9.00;;;20.20;93.60;;;;;;4975040;28;20170;-93
2021/01/24 10:10:57;;;;;;;11.73;8.95;;;20.30;93.10;;;;;;4974665;28;20182;-93
2021/01/24 10:13:23;;;;;;;9.20;8.30;;;20.30;92.90;;;;;;4974618;28;20182;-92
2021/01/24 10:15:51;;;;;;;11.02;8.40;;;20.40;93.10;;;;;;4973603;28;20276;-92
2021/01/24 10:18:17;;;;;;;10.45;8.45;;;20.30;93.00;;;;;;4974254;28;20182;-93
2021/01/24 10:20:43;;;;;;;10.55;8.52;;;20.20;93.50;;;;;;4974857;28;20195;-94
2021/01/24 10:23:12;;;;;;;14.90;9.60;;;19.70;93.30;;;;;;4975042;28;20258;-93
2021/01/24 10:25:38;;;;;;;11.32;8.90;;;19.10;94.10;;;;;;4977467;28;20277;-92
2021/01/24 10:28:05;;;;;;;9.82;8.00;;;18.00;95.10;;;;;;4996930;28;20192;-89
2021/01/24 10:30:31;;;;;;;14.48;8.98;;;17.30;96.20;;;;;;4976295;28;20178;-93
2021/01/24 10:32:59;;;;;;;11.90;8.73;;;16.50;96.60;;;;;;4975035;28;20182;-92
2021/01/24 10:35:25;;;;;;;15.05;9.65;;;15.40;98.00;;;;;;4974796;28;20330;-92
2021/01/24 10:37:53;;;;;;;10.93;9.38;;;14.40;99.60;;;;;;4974904;28;20182;-93
2021/01/24 10:40:24;;;;;;;13.15;9.90;;;13.50;99.90;;;;;;4957187;28;20191;-93
2021/01/24 10:42:49;;;;;;;15.48;9.15;;;12.80;99.90;;;;;;4956471;29;20202;-93
2021/01/24 10:45:18;;;;;;;15.85;10.52;;;12.10;99.90;;;;;;4974126;28;20189;-92
2021/01/24 10:47:44;;;;;;;12.90;9.90;;;11.80;99.90;;;;;;4974099;28;20191;-91
2021/01/24 10:50:11;;;;;;;17.60;11.05;;;11.60;99.90;;;;;;4975382;28;20178;-92
2021/01/24 10:52:39;;;;;;;21.40;11.55;;;11.40;99.90;;;;;;4973843;28;20281;-92
2021/01/24 10:55:06;;;;;;;21.23;10.95;;;11.10;99.90;;;;;;4973939;28;20240;-92
2021/01/24 10:57:31;;;;;;;15.38;10.63;;;10.80;99.90;;;;;;4974121;28;20174;-92
2021/01/24 10:59:57;;;;;;;19.40;10.48;;;10.60;99.90;;;;;;4973954;28;20192;-92
2021/01/24 11:02:25;;;;;;;17.83;11.15;;;10.50;99.90;;;;;;4975275;28;20192;-93
2021/01/24 11:04:51;;;;;;;14.23;10.63;;;10.50;99.90;;;;;;4975053;28;20244;-92
2021/01/24 11:08:37;;;;;;;14.73;10.93;;;10.60;99.90;;;;;;5081065;27;834161;-92
2021/01/24 11:11:03;;;;;;;15.25;10.40;;;10.50;99.90;;;;;;5094507;28;20268;-93
2021/01/24 11:13:29;;;;;;;14.90;9.75;;;11.00;99.90;;;;;;5094008;28;20200;-94
2021/01/24 11:15:57;;;;;;;17.27;9.95;;;11.70;99.90;;;;;;5094342;28;20546;-94
2021/01/24 11:18:23;;;;;;;11.02;9.73;;;12.30;99.90;;;;;;5091466;28;20268;-94
2021/01/24 11:20:48;;;;;;;14.25;10.35;;;12.90;99.90;;;;;;5075825;28;20263;-93
2021/01/24 11:23:24;;;;;;;13.65;9.32;;;13.70;99.90;;;;;;5074157;28;20174;-94
2021/01/24 11:25:51;;;;;;;10.13;8.45;;;14.10;99.90;;;;;;5074069;28;20177;-93
2021/01/24 11:28:20;;;;;;;13.32;9.57;;;13.90;99.90;;;;;;5074168;28;20198;-94
2021/01/24 11:30:45;;;;;;;12.15;9.65;;;13.40;99.90;;;;;;5092708;28;20222;-94
2021/01/24 11:33:16;;;;;;;13.63;10.27;;;12.30;99.90;;;;;;5118412;28;20178;-94
2021/01/24 11:35:42;;;;;;;16.27;10.70;;;11.20;99.90;;;;;;5101260;28;20196;-94
2021/01/24 11:38:10;;;;;;;11.63;9.55;;;10.20;99.90;;;;;;5101260;28;20618;-93
2021/01/24 11:40:36;;;;;;;14.20;10.57;;;9.40;99.90;;;;;;5108782;28;20160;-95
2021/01/24 11:43:01;;;;;;;17.83;11.25;;;8.90;99.90;;;;;;5091646;28;20213;-93
2021/01/24 11:45:29;;;;;;;20.02;11.02;;;8.60;99.90;;;;;;5094143;28;20264;-93
2021/01/24 11:47:55;;;;;;;12.37;10.57;;;8.40;99.90;;;;;;5106734;28;20205;-93
2021/01/24 11:50:21;;;;;;;15.90;10.80;;;8.00;99.90;;;;;;5081610;28;20211;-92
2021/01/24 11:52:47;;;;;;;18.17;12.00;;;7.80;99.90;;;;;;5102957;28;20231;-92
2021/01/24 11:55:15;;;;;;;17.63;11.43;;;7.60;99.90;;;;;;5075463;28;20269;-92
2021/01/24 11:57:41;;;;;;;19.13;11.93;;;7.40;99.90;;;;;;5092781;28;20226;-92
2021/01/24 12:00:09;;;;;;;19.70;10.87;;;7.10;99.90;;;;;;5106780;28;20529;-92
2021/01/24 12:02:35;;;;;;;16.40;11.73;;;7.00;99.90;;;;;;5091737;28;20166;-91
2021/01/24 12:05:00;;;;;;;19.17;11.80;;;7.00;99.90;;;;;;5095572;28;20200;-92
2021/01/24 12:07:26;;;;;;;21.43;12.17;;;7.00;99.90;;;;;;5093552;28;20217;-92
2021/01/24 12:09:55;;;;;;;18.97;11.93;;;6.90;99.90;;;;;;5093243;28;20622;-92
2021/01/24 12:12:21;;;;;;;18.17;11.70;;;6.90;99.90;;;;;;5088116;28;20198;-92
2021/01/24 12:14:46;;;;;;;20.60;11.67;;;6.90;99.90;;;;;;5093087;28;20704;-92
2021/01/24 12:17:24;;;;;;;17.40;11.17;;;6.60;99.90;;;;;;5077883;28;20182;-91
2021/01/24 12:19:50;;;;;;;20.00;11.97;;;6.60;99.90;;;;;;5067388;28;20589;-91
2021/01/24 12:22:16;;;;;;;16.33;11.10;;;6.40;99.90;;;;;;5080218;28;20207;-91
2021/01/24 12:24:42;;;;;;;16.23;11.47;;;6.40;99.90;;;;;;5081816;28;20219;-92
2021/01/24 12:27:07;;;;;;;16.70;10.53;;;6.40;99.90;;;;;;5063672;28;20210;-91
2021/01/24 12:29:41;;;;;;;17.90;10.20;;;6.40;99.90;;;;;;5080073;28;20170;-93
2021/01/24 12:32:06;;;;;;;20.37;9.93;;;6.40;99.90;;;;;;5077561;28;20242;-92
2021/01/24 12:34:32;;;;;;;13.43;8.70;;;6.40;99.90;;;;;;5072476;28;20629;-92
2021/01/24 12:36:58;;;;;;;10.63;8.17;;;6.30;99.90;;;;;;5059186;28;20532;-92
2021/01/24 12:39:24;;;;;;;15.30;9.00;;;6.30;99.90;;;;;;5060458;28;20175;-91
2021/01/24 12:41:52;;;;;;;12.50;7.90;;;6.30;99.90;;;;;;5046473;28;20296;-92
2021/01/24 12:44:17;;;;;;;15.30;9.60;;;6.40;99.90;;;;;;5059847;28;20170;-91
2021/01/24 12:46:43;;;;;;;16.47;9.77;;;6.40;99.90;;;;;;5088521;28;20292;-92
2021/01/24 12:49:09;;;;;;;14.73;7.90;;;6.50;99.90;;;;;;5088880;28;20195;-91
2021/01/24 12:51:35;;;;;;;15.50;9.13;;;6.30;99.90;;;;;;5090628;28;20196;-92
2021/01/24 12:54:01;;;;;;;13.90;8.57;;;6.30;99.90;;;;;;5088710;28;20186;-92